Time;durP1;ratioP1;P1;durP2;ratioP2;P2;SDS_P1;SDS_P2;PMS_P1;PMS_P2;Temp;Humidity;BMP_temperature;BMP_pressure;BME280_temperature;BME280_humidity;BME280_pressure;Samples;Min_cycle;Max_cycle;Signal;HPM_P1;HPM_P2
2023/05/07 00:01:02;;;;;;;10.80;9.90;;;;;;;13.67;100.00;101406.34;4866507;28;20942;-71
2023/05/07 00:03:28;;;;;;;11.13;10.02;;;;;;;13.68;100.00;101405.38;4870291;29;20033;-72
2023/05/07 00:05:54;;;;;;;11.30;10.30;;;;;;;13.67;100.00;101404.53;4867318;28;20481;-72
2023/05/07 00:08:20;;;;;;;11.00;10.00;;;;;;;13.69;100.00;101407.09;4907813;28;20076;-72
2023/05/07 00:10:46;;;;;;;11.30;10.30;;;;;;;13.68;100.00;101397.34;4920911;28;20048;-72
2023/05/07 00:13:11;;;;;;;11.68;10.57;;;;;;;13.66;100.00;101393.88;4866808;28;20505;-72
2023/05/07 00:15:37;;;;;;;10.82;10.02;;;;;;;13.65;100.00;101401.06;4866041;28;20096;-72
2023/05/07 00:18:02;;;;;;;12.77;11.50;;;;;;;13.64;100.00;101398.47;4894129;28;20073;-71
2023/05/07 00:20:27;;;;;;;12.60;11.48;;;;;;;13.66;100.00;101401.91;4870745;29;20553;-70
2023/05/07 00:22:56;;;;;;;12.50;11.35;;;;;;;13.63;100.00;101407.47;4868203;28;20036;-71
2023/05/07 00:25:21;;;;;;;12.45;11.43;;;;;;;13.60;100.00;101395.09;4867831;28;20044;-72
2023/05/07 00:27:46;;;;;;;13.00;11.93;;;;;;;13.59;100.00;101389.84;4883250;28;20029;-72
2023/05/07 00:30:12;;;;;;;13.07;11.98;;;;;;;13.55;100.00;101383.78;4864633;28;20037;-70
2023/05/07 00:32:38;;;;;;;13.45;12.25;;;;;;;13.51;100.00;101381.38;4866354;28;20041;-71
2023/05/07 00:35:05;;;;;;;13.93;12.57;;;;;;;13.47;100.00;101383.34;4867956;28;20032;-72
2023/05/07 00:37:30;;;;;;;13.70;12.57;;;;;;;13.43;100.00;101376.44;4866018;28;20029;-71
2023/05/07 00:39:56;;;;;;;14.00;12.90;;;;;;;13.34;100.00;101369.78;4866117;28;20025;-71
2023/05/07 00:42:21;;;;;;;14.32;13.02;;;;;;;13.35;100.00;101371.50;4865658;28;20029;-71
2023/05/07 00:44:47;;;;;;;15.02;13.73;;;;;;;13.41;100.00;101376.50;4929010;28;20612;-71
2023/05/07 00:47:13;;;;;;;15.50;14.10;;;;;;;13.42;100.00;101380.94;4878659;28;20218;-71
2023/05/07 00:49:41;;;;;;;15.32;14.02;;;;;;;13.40;100.00;101374.78;4884641;28;20056;-71
2023/05/07 00:52:13;;;;;;;15.43;14.07;;;;;;;13.42;100.00;101372.91;4868909;28;20037;-72
2023/05/07 00:54:40;;;;;;;15.85;14.57;;;;;;;13.46;100.00;101373.59;4872063;28;20502;-71
2023/05/07 00:57:06;;;;;;;15.65;14.15;;;;;;;13.45;100.00;101364.69;4867213;28;20041;-70
2023/05/07 00:59:32;;;;;;;16.08;14.57;;;;;;;13.49;100.00;101378.75;4888566;28;20073;-72
2023/05/07 01:01:57;;;;;;;15.70;14.30;;;;;;;13.45;100.00;101372.72;4867001;28;20295;-72
2023/05/07 01:04:26;;;;;;;15.90;14.30;;;;;;;13.45;100.00;101378.06;4880418;28;20443;-70
2023/05/07 01:06:52;;;;;;;17.25;15.85;;;;;;;13.47;100.00;101377.13;4902078;28;20133;-71
2023/05/07 01:09:19;;;;;;;17.65;15.95;;;;;;;13.47;100.00;101380.69;4900699;28;20130;-71
2023/05/07 01:11:46;;;;;;;18.00;16.30;;;;;;;13.47;100.00;101371.78;4871700;28;20021;-71
2023/05/07 01:14:11;;;;;;;18.17;16.63;;;;;;;13.48;100.00;101374.38;4864925;29;20165;-71
2023/05/07 01:16:37;;;;;;;19.17;17.27;;;;;;;13.50;100.00;101368.94;4879113;28;20117;-71
2023/05/07 01:19:03;;;;;;;18.52;16.92;;;;;;;13.50;100.00;101366.25;4866067;28;20037;-72
2023/05/07 01:21:33;;;;;;;18.48;16.52;;;;;;;13.47;100.00;101361.97;4868188;28;20218;-71
2023/05/07 01:23:58;;;;;;;18.58;16.90;;;;;;;13.45;100.00;101356.69;4862336;29;20032;-72
2023/05/07 01:26:24;;;;;;;20.17;18.33;;;;;;;13.47;100.00;101361.97;4864333;29;20261;-72
2023/05/07 01:28:50;;;;;;;18.58;16.98;;;;;;;13.44;100.00;101349.59;4866477;28;20111;-72
2023/05/07 01:31:17;;;;;;;18.02;16.27;;;;;;;13.41;100.00;101344.41;4863923;29;20033;-71
2023/05/07 01:33:45;;;;;;;19.60;17.83;;;;;;;13.40;100.00;101342.69;4864931;28;20025;-71
2023/05/07 01:36:13;;;;;;;18.77;17.15;;;;;;;13.37;100.00;101339.31;4876368;28;20039;-71
2023/05/07 01:38:40;;;;;;;18.27;16.55;;;;;;;13.35;100.00;101347.44;4873220;28;20029;-72
2023/05/07 01:41:06;;;;;;;19.45;17.65;;;;;;;13.32;100.00;101354.75;4867606;28;20389;-72
2023/05/07 01:43:31;;;;;;;19.23;17.42;;;;;;;13.33;100.00;101345.78;4873474;28;20036;-71
2023/05/07 01:45:58;;;;;;;20.23;18.42;;;;;;;13.30;100.00;101344.16;4870948;28;20037;-72
2023/05/07 01:48:25;;;;;;;20.80;18.98;;;;;;;13.27;100.00;101338.13;4865794;28;20059;-73
2023/05/07 01:50:51;;;;;;;21.92;19.92;;;;;;;13.27;100.00;101351.47;4928997;28;20513;-72
2023/05/07 01:53:16;;;;;;;22.25;20.17;;;;;;;13.27;100.00;101341.66;4865389;28;20171;-72
2023/05/07 01:55:42;;;;;;;23.60;21.33;;;;;;;13.24;100.00;101340.94;4879284;28;20135;-72
2023/05/07 01:58:07;;;;;;;22.40;20.35;;;;;;;13.23;100.00;101331.19;4866672;28;20100;-71
2023/05/07 02:00:32;;;;;;;22.65;20.50;;;;;;;13.24;100.00;101331.09;4862660;28;20120;-70
2023/05/07 02:02:58;;;;;;;23.35;21.10;;;;;;;13.25;100.00;101334.63;4874346;28;20048;-71
2023/05/07 02:05:24;;;;;;;22.25;20.25;;;;;;;13.21;100.00;101339.28;4865302;28;20089;-71
2023/05/07 02:07:50;;;;;;;24.40;21.88;;;;;;;13.26;100.00;101334.59;4898328;28;20031;-71
2023/05/07 02:10:15;;;;;;;27.75;22.50;;;;;;;13.25;100.00;101338.22;4877328;28;20636;-71
2023/05/07 02:12:40;;;;;;;24.15;21.65;;;;;;;13.24;100.00;101336.47;4868040;28;20117;-71
2023/05/07 02:15:06;;;;;;;24.55;22.20;;;;;;;13.23;100.00;101337.41;4868875;28;20044;-72
2023/05/07 02:17:32;;;;;;;25.08;22.63;;;;;;;13.24;100.00;101331.09;4948864;28;20438;-71
2023/05/07 02:19:58;;;;;;;24.42;22.20;;;;;;;13.25;100.00;101345.34;4872019;28;20481;-72
2023/05/07 02:22:25;;;;;;;24.15;21.95;;;;;;;13.26;100.00;101344.41;4949147;28;20045;-72
2023/05/07 02:24:50;;;;;;;24.48;22.20;;;;;;;13.28;100.00;101353.19;4868389;28;20559;-71
2023/05/07 02:27:15;;;;;;;25.08;22.67;;;;;;;13.25;100.00;101348.91;4882792;28;20068;-71
2023/05/07 02:29:41;;;;;;;24.27;22.15;;;;;;;13.29;100.00;101349.56;4864856;28;20206;-70
2023/05/07 02:32:06;;;;;;;25.75;23.35;;;;;;;13.25;100.00;101351.56;4870318;28;20067;-71
2023/05/07 02:34:31;;;;;;;26.52;24.13;;;;;;;13.25;100.00;101356.91;4869217;29;20029;-71
2023/05/07 02:36:57;;;;;;;27.58;25.02;;;;;;;13.26;100.00;101350.63;4868806;28;20037;-71
2023/05/07 02:39:22;;;;;;;27.90;25.17;;;;;;;13.30;100.00;101354.00;4923154;28;20033;-70
2023/05/07 02:41:47;;;;;;;28.95;26.15;;;;;;;13.25;100.00;101348.91;4885003;28;20035;-70
2023/05/07 02:44:13;;;;;;;28.05;25.50;;;;;;;13.22;100.00;101351.69;4869094;29;20169;-71
2023/05/07 02:46:38;;;;;;;30.23;27.27;;;;;;;13.24;100.00;101349.81;4868362;28;20025;-70
2023/05/07 02:49:03;;;;;;;27.42;24.88;;;;;;;13.24;100.00;101348.97;4874253;28;20158;-71
2023/05/07 02:51:30;;;;;;;29.10;26.30;;;;;;;13.18;100.00;101347.47;4867768;28;20111;-71
2023/05/07 02:53:56;;;;;;;29.63;26.83;;;;;;;13.19;100.00;101352.72;4867916;28;20033;-71
2023/05/07 02:56:21;;;;;;;29.67;26.92;;;;;;;13.19;100.00;101349.19;4882386;28;20041;-72
2023/05/07 02:58:47;;;;;;;28.85;26.05;;;;;;;13.23;100.00;101350.78;4868373;28;20429;-72
2023/05/07 03:01:13;;;;;;;30.70;27.67;;;;;;;13.20;100.00;101351.75;4890307;28;20128;-72
2023/05/07 03:03:39;;;;;;;31.50;28.50;;;;;;;13.20;100.00;101357.09;4869901;28;20252;-72
2023/05/07 03:06:05;;;;;;;32.40;29.25;;;;;;;13.16;100.00;101344.84;4872594;28;20029;-72
2023/05/07 03:08:30;;;;;;;32.53;29.23;;;;;;;13.17;100.00;101343.06;4884546;28;20048;-72
2023/05/07 03:10:56;;;;;;;33.20;30.08;;;;;;;13.16;100.00;101344.00;4879241;28;20025;-71
2023/05/07 03:13:21;;;;;;;33.03;29.73;;;;;;;13.17;100.00;101346.59;4879727;28;20086;-72
2023/05/07 03:15:47;;;;;;;31.38;28.30;;;;;;;13.17;100.00;101345.75;4963164;28;20053;-72
2023/05/07 03:18:12;;;;;;;32.25;29.17;;;;;;;13.15;100.00;101342.28;4886198;28;20112;-72
2023/05/07 03:20:37;;;;;;;32.53;29.45;;;;;;;13.14;100.00;101340.56;4962103;28;20033;-72
2023/05/07 03:23:03;;;;;;;33.53;30.23;;;;;;;13.16;100.00;101331.47;4946081;28;20068;-71
2023/05/07 03:25:29;;;;;;;33.15;30.00;;;;;;;13.18;100.00;101344.78;4867925;28;20501;-72
2023/05/07 03:27:56;;;;;;;34.08;30.88;;;;;;;13.17;100.00;101335.06;4956084;28;20449;-72
2023/05/07 03:30:22;;;;;;;34.10;30.80;;;;;;;13.17;100.00;101333.25;4868130;28;20033;-72
2023/05/07 03:32:47;;;;;;;35.47;32.08;;;;;;;13.12;100.00;101326.38;4878874;28;20547;-72
2023/05/07 03:35:13;;;;;;;35.78;32.35;;;;;;;13.09;100.00;101321.22;4870916;28;20099;-72
2023/05/07 03:37:38;;;;;;;35.80;32.15;;;;;;;13.12;100.00;101334.41;4946276;28;20060;-71
2023/05/07 03:40:05;;;;;;;35.10;31.70;;;;;;;13.12;100.00;101331.72;4879061;28;20056;-72
2023/05/07 03:42:30;;;;;;;34.72;31.33;;;;;;;13.12;100.00;101327.25;4893785;28;20083;-71
2023/05/07 03:44:56;;;;;;;35.20;31.70;;;;;;;13.12;100.00;101331.72;4888002;28;20043;-72
2023/05/07 03:47:21;;;;;;;35.22;31.83;;;;;;;13.10;100.00;101328.28;4880720;28;20504;-71
2023/05/07 03:49:47;;;;;;;34.85;31.35;;;;;;;13.07;100.00;101326.63;4867797;28;20037;-71
2023/05/07 03:52:13;;;;;;;36.50;32.75;;;;;;;13.07;100.00;101325.78;4867763;28;20035;-71
2023/05/07 03:54:38;;;;;;;35.88;32.28;;;;;;;13.08;100.00;101324.81;4861930;28;20042;-70
2023/05/07 03:57:04;;;;;;;36.55;32.95;;;;;;;13.08;100.00;101324.81;4868623;28;20420;-71
2023/05/07 03:59:29;;;;;;;38.65;34.85;;;;;;;13.07;100.00;101333.81;4874418;28;20022;-71
2023/05/07 04:01:54;;;;;;;37.50;33.80;;;;;;;13.05;100.00;101333.03;4890019;28;20578;-72
2023/05/07 04:04:21;;;;;;;36.58;33.13;;;;;;;13.05;100.00;101336.56;4866019;28;20557;-72
2023/05/07 04:06:46;;;;;;;38.60;34.72;;;;;;;13.04;100.00;101339.28;4868690;28;20040;-71
2023/05/07 04:09:11;;;;;;;37.67;33.95;;;;;;;13.04;100.00;101347.31;4875646;28;20025;-71
2023/05/07 04:11:37;;;;;;;37.45;33.95;;;;;;;13.05;100.00;101341.06;4873746;28;20458;-71
2023/05/07 04:14:02;;;;;;;38.55;34.65;;;;;;;13.03;100.00;101348.28;4876839;28;20037;-72
2023/05/07 04:16:28;;;;;;;37.40;34.00;;;;;;;13.07;100.00;101350.69;4943495;28;20037;-70
2023/05/07 04:18:53;;;;;;;38.45;34.75;;;;;;;13.08;100.00;101343.53;4948357;28;20041;-71
2023/05/07 04:21:19;;;;;;;36.78;33.30;;;;;;;13.07;100.00;101353.38;4911988;28;20036;-70
2023/05/07 04:23:46;;;;;;;38.83;35.03;;;;;;;13.05;100.00;101349.94;4882266;28;20206;-70
2023/05/07 04:26:11;;;;;;;36.67;33.03;;;;;;;13.11;100.00;101356.75;4889569;28;20061;-71
2023/05/07 04:28:39;;;;;;;37.22;33.55;;;;;;;13.09;100.00;101355.97;4866637;28;20039;-70
2023/05/07 04:31:04;;;;;;;35.97;32.63;;;;;;;13.07;100.00;101366.72;4883539;28;20084;-71
2023/05/07 04:33:29;;;;;;;36.05;32.55;;;;;;;13.10;100.00;101352.34;4873700;28;20124;-71
2023/05/07 04:35:55;;;;;;;36.80;33.40;;;;;;;13.09;100.00;101359.50;4882480;28;20623;-71
2023/05/07 04:38:21;;;;;;;36.42;33.00;;;;;;;13.14;100.00;101361.94;4966378;28;20034;-71
2023/05/07 04:40:46;;;;;;;35.92;32.50;;;;;;;13.17;100.00;101351.09;4873985;28;20032;-71
2023/05/07 04:43:13;;;;;;;36.42;32.92;;;;;;;13.18;100.00;101352.81;4871597;28;20032;-72
2023/05/07 04:45:41;;;;;;;36.97;33.38;;;;;;;13.21;100.00;101349.97;4867514;29;20044;-72
2023/05/07 04:48:06;;;;;;;36.22;32.83;;;;;;;13.27;100.00;101362.16;4869518;28;20030;-72
2023/05/07 04:50:31;;;;;;;35.17;31.92;;;;;;;13.25;100.00;101358.69;4892092;28;20033;-72
2023/05/07 04:52:57;;;;;;;35.78;32.33;;;;;;;13.31;100.00;101355.72;4945915;28;20091;-72
2023/05/07 04:55:22;;;;;;;34.78;31.58;;;;;;;13.34;100.00;101358.22;4886561;28;20486;-71
2023/05/07 04:57:47;;;;;;;34.90;31.60;;;;;;;13.34;100.00;101367.13;4890627;28;20029;-72
2023/05/07 05:00:19;;;;;;;34.00;30.73;;;;;;;13.37;100.00;101363.38;4866189;29;20036;-72
2023/05/07 05:02:45;;;;;;;36.42;32.75;;;;;;;13.40;100.00;101372.09;4866600;28;20045;-71
2023/05/07 05:05:10;;;;;;;35.03;31.63;;;;;;;13.43;100.00;101374.63;4865584;29;20040;-72
2023/05/07 05:07:35;;;;;;;33.70;30.40;;;;;;;13.43;100.00;101369.28;4872224;28;20485;-71
2023/05/07 05:10:02;;;;;;;33.55;30.55;;;;;;;13.38;100.00;101367.81;4866039;28;20469;-71
2023/05/07 05:12:28;;;;;;;33.45;30.40;;;;;;;13.41;100.00;101364.94;4866430;29;20506;-71
2023/05/07 05:14:54;;;;;;;35.03;31.52;;;;;;;13.42;100.00;101364.03;4867782;28;20033;-72
2023/05/07 05:17:19;;;;;;;34.88;31.42;;;;;;;13.41;100.00;101375.66;4878829;28;20097;-72
2023/05/07 05:19:44;;;;;;;34.33;31.13;;;;;;;13.40;100.00;101382.81;4865121;29;20581;-72
2023/05/07 05:22:10;;;;;;;34.13;30.95;;;;;;;13.47;100.00;101382.50;4864427;29;20168;-71
2023/05/07 05:24:35;;;;;;;35.00;31.55;;;;;;;13.52;100.00;101378.59;4865777;29;20056;-71
2023/05/07 05:27:01;;;;;;;33.28;30.13;;;;;;;13.58;100.00;101391.63;4868567;28;20033;-71
2023/05/07 05:29:27;;;;;;;33.60;30.38;;;;;;;13.63;100.00;101378.03;4961127;28;20470;-73
2023/05/07 05:31:52;;;;;;;32.65;29.60;;;;;;;13.69;100.00;101383.03;4944837;28;20029;-73
2023/05/07 05:34:19;;;;;;;32.83;29.75;;;;;;;13.74;100.00;101383.63;4866054;28;20234;-72
2023/05/07 05:36:45;;;;;;;33.72;30.52;;;;;;;13.72;100.00;101382.88;4928610;28;20100;-72
2023/05/07 05:39:10;;;;;;;33.85;30.73;;;;;;;13.75;100.00;101380.00;4871404;28;20037;-72
2023/05/07 05:41:36;;;;;;;32.50;29.30;;;;;;;13.71;100.00;101378.47;4912883;28;20040;-72
2023/05/07 05:44:01;;;;;;;31.88;28.95;;;;;;;13.76;100.00;101389.78;4876211;28;20495;-73
2023/05/07 05:46:30;;;;;;;32.63;29.63;;;;;;;13.78;100.00;101387.88;4870416;28;20370;-72
2023/05/07 05:48:55;;;;;;;32.15;29.25;;;;;;;13.82;100.00;101396.59;4868998;28;20041;-73
2023/05/07 05:51:21;;;;;;;32.17;29.17;;;;;;;13.80;100.00;101394.00;4893409;28;20025;-72
2023/05/07 05:53:46;;;;;;;32.38;29.48;;;;;;;13.93;100.00;101403.06;4885530;28;20392;-72
2023/05/07 05:56:12;;;;;;;31.60;28.70;;;;;;;13.97;100.00;101400.22;4881834;28;20071;-72
2023/05/07 05:58:37;;;;;;;31.25;28.35;;;;;;;14.01;100.00;101401.78;4869472;28;20128;-71
2023/05/07 06:01:03;;;;;;;31.88;28.88;;;;;;;14.07;100.00;101404.97;4941232;28;20142;-70
2023/05/07 06:03:28;;;;;;;30.02;27.40;;;;;;;14.15;100.00;101405.41;4946404;28;20019;-71
2023/05/07 06:05:53;;;;;;;31.73;28.77;;;;;;;14.24;100.00;101392.44;4944949;28;20035;-72
2023/05/07 06:08:19;;;;;;;30.63;27.73;;;;;;;14.33;100.00;101397.25;4946515;28;20374;-71
2023/05/07 06:10:45;;;;;;;30.77;27.88;;;;;;;14.44;100.00;101394.81;4947247;28;20505;-71
2023/05/07 06:13:10;;;;;;;29.63;26.83;;;;;;;14.53;100.00;101388.97;4946354;28;20027;-72
2023/05/07 06:15:35;;;;;;;30.15;27.40;;;;;;;14.56;100.00;101390.59;4943643;28;20034;-71
2023/05/07 06:18:01;;;;;;;30.35;27.35;;;;;;;14.62;100.00;101395.59;4944978;28;20038;-71
2023/05/07 06:20:26;;;;;;;29.27;26.42;;;;;;;14.69;100.00;101399.63;4947547;28;20023;-72
2023/05/07 06:22:51;;;;;;;29.17;26.67;;;;;;;14.69;100.00;101399.63;4947528;28;20027;-72
2023/05/07 06:25:17;;;;;;;27.92;25.33;;;;;;;14.77;100.00;101404.56;4947195;28;20187;-72
2023/05/07 06:27:42;;;;;;;28.08;25.63;;;;;;;14.69;100.00;101410.34;4947065;28;20038;-71
2023/05/07 06:30:08;;;;;;;28.50;25.80;;;;;;;14.70;100.00;101415.63;4947525;28;20046;-72
2023/05/07 06:32:33;;;;;;;28.75;26.05;;;;;;;14.73;100.00;101409.22;4947783;28;20035;-72
2023/05/07 06:34:59;;;;;;;28.77;26.17;;;;;;;14.76;100.00;101411.72;4946997;28;20617;-72
2023/05/07 06:37:25;;;;;;;26.52;24.20;;;;;;;14.78;100.00;101395.56;4950239;28;20381;-72
2023/05/07 06:39:50;;;;;;;27.33;25.05;;;;;;;14.94;100.00;101407.09;4946129;28;20443;-71
2023/05/07 06:42:15;;;;;;;27.30;24.63;;;;;;;15.04;100.00;101408.25;4946707;28;20419;-72
2023/05/07 06:44:41;;;;;;;27.85;25.33;;;;;;;15.12;100.00;101399.72;4946770;28;20035;-72
2023/05/07 06:47:06;;;;;;;27.67;25.17;;;;;;;15.29;100.00;101402.25;4943828;28;20102;-72
2023/05/07 06:49:32;;;;;;;26.95;24.48;;;;;;;15.45;100.00;101408.38;4960336;28;20042;-70
2023/05/07 06:52:00;;;;;;;25.88;23.50;;;;;;;15.48;100.00;101420.75;4953228;28;20027;-71
2023/05/07 06:54:26;;;;;;;25.50;23.00;;;;;;;15.49;100.00;101416.25;4948526;28;20306;-72
2023/05/07 06:56:51;;;;;;;25.52;23.23;;;;;;;15.52;100.00;101414.25;4946990;28;20039;-72
2023/05/07 06:59:16;;;;;;;23.88;21.58;;;;;;;15.59;100.00;101414.69;4945364;28;20059;-72
2023/05/07 07:01:42;;;;;;;22.65;20.60;;;;;;;15.60;100.00;101421.81;4906709;28;20072;-72
2023/05/07 07:04:07;;;;;;;21.88;19.85;;;;;;;15.57;100.00;101419.31;4873219;28;20272;-70
2023/05/07 07:06:33;;;;;;;21.98;19.98;;;;;;;15.62;100.00;101422.56;4873454;28;20374;-72
2023/05/07 07:09:01;;;;;;;22.77;20.63;;;;;;;15.67;100.00;101421.38;4868119;29;20084;-72
2023/05/07 07:11:26;;;;;;;23.27;21.10;;;;;;;15.70;100.00;101422.97;4868348;29;20043;-72
2023/05/07 07:13:54;;;;;;;23.38;21.25;;;;;;;15.73;100.00;101416.56;4868223;28;20025;-70
2023/05/07 07:16:20;;;;;;;22.48;20.23;;;;;;;15.80;100.00;101432.19;4932168;28;20096;-71
2023/05/07 07:18:45;;;;;;;22.70;20.60;;;;;;;15.74;100.00;101427.19;4930067;28;20087;-71
2023/05/07 07:21:38;;;;;;;22.58;20.48;;;;;;;15.76;100.00;101433.34;4870166;28;20029;-71
2023/05/07 07:24:04;;;;;;;22.92;21.02;;;;;;;15.69;100.00;101435.53;4917991;23;20060;-72
2023/05/07 07:26:30;;;;;;;21.10;19.20;;;;;;;15.59;100.00;101422.75;4888760;28;20043;-72
2023/05/07 07:28:55;;;;;;;20.92;18.92;;;;;;;15.62;100.00;101422.56;4890018;28;20503;-71
2023/05/07 07:31:20;;;;;;;21.73;19.65;;;;;;;15.72;100.00;101428.25;4890898;28;20075;-71
2023/05/07 07:33:46;;;;;;;22.35;20.23;;;;;;;15.82;100.00;101426.72;4908437;28;20491;-71
2023/05/07 07:36:11;;;;;;;23.17;21.08;;;;;;;15.97;100.00;101427.53;4881250;28;20559;-71
2023/05/07 07:38:36;;;;;;;21.42;19.33;;;;;;;16.19;100.00;101433.28;4887244;28;20112;-71
2023/05/07 07:41:02;;;;;;;21.80;19.85;;;;;;;16.23;100.00;101425.88;4880139;28;20095;-71
2023/05/07 07:43:29;;;;;;;20.70;18.70;;;;;;;16.25;100.00;101437.38;4963324;28;20043;-71
2023/05/07 07:45:54;;;;;;;20.23;18.42;;;;;;;16.27;100.00;101436.31;4892132;28;20119;-71
2023/05/07 07:48:42;;;;;;;20.08;18.27;;;;;;;16.39;100.00;101440.03;4963332;28;20112;-71
2023/05/07 07:51:07;;;;;;;20.38;18.58;;;;;;;16.36;100.00;101442.91;4896066;23;1294156;-74
2023/05/07 07:53:32;;;;;;;20.15;18.45;;;;;;;16.46;100.00;101441.31;4926616;28;20044;-76
2023/05/07 07:55:58;;;;;;;21.13;19.17;;;;;;;16.49;100.00;101445.66;4903641;29;20032;-75
2023/05/07 07:58:24;;;;;;;20.60;18.55;;;;;;;16.58;100.00;101439.66;4918796;28;20417;-79
2023/05/07 08:00:50;;;;;;;22.05;20.05;;;;;;;16.68;100.00;101440.78;4914166;23;20626;-77
2023/05/07 08:03:16;;;;;;;21.48;19.58;;;;;;;16.80;100.00;101439.09;4918376;28;20032;-74
2023/05/07 08:05:42;;;;;;;22.73;20.48;;;;;;;16.97;100.00;101443.34;4917121;28;20033;-77
2023/05/07 08:08:08;;;;;;;22.65;20.42;;;;;;;17.06;100.00;101440.91;4909674;28;21506;-74
2023/05/07 08:10:34;;;;;;;21.45;19.42;;;;;;;17.07;100.00;101442.63;4920333;28;20228;-77
2023/05/07 08:13:00;;;;;;;20.98;19.10;;;;;;;17.15;100.00;101428.66;4985148;28;20408;-76
2023/05/07 08:15:25;;;;;;;19.95;18.25;;;;;;;17.29;100.00;101439.28;4913977;28;20059;-77
2023/05/07 08:17:51;;;;;;;21.30;19.38;;;;;;;17.32;100.00;101436.41;4927142;28;20082;-74
2023/05/07 08:20:16;;;;;;;20.23;18.27;;;;;;;17.61;100.00;101439.72;4931648;28;20040;-76
2023/05/07 08:22:41;;;;;;;20.60;18.80;;;;;;;17.84;99.94;101439.94;4925903;28;20118;-78
2023/05/07 08:25:07;;;;;;;19.95;18.15;;;;;;;18.20;98.85;101443.66;4904571;28;20456;-78
2023/05/07 08:27:32;;;;;;;19.88;18.27;;;;;;;18.52;97.40;101449.31;4921024;28;20866;-74
2023/05/07 08:30:02;;;;;;;18.33;16.65;;;;;;;18.77;93.91;101454.66;4953127;28;20263;-75
2023/05/07 08:32:27;;;;;;;18.88;17.27;;;;;;;19.01;91.28;101449.19;4903345;28;20040;-75
2023/05/07 08:34:53;;;;;;;18.33;16.67;;;;;;;19.16;92.50;101457.97;4919370;28;20038;-76
2023/05/07 08:37:18;;;;;;;17.42;15.82;;;;;;;19.29;91.79;101456.03;4900681;28;20389;-75
2023/05/07 08:39:43;;;;;;;16.33;14.82;;;;;;;19.30;89.70;101464.97;4911495;28;20507;-74
2023/05/07 08:42:11;;;;;;;17.23;15.73;;;;;;;19.34;88.93;101466.47;4912951;28;20051;-75
2023/05/07 08:44:38;;;;;;;15.35;14.07;;;;;;;19.22;90.04;101470.13;4911766;28;20024;-76
2023/05/07 08:47:07;;;;;;;16.08;14.48;;;;;;;19.13;89.49;101456.34;4901023;28;20112;-76
2023/05/07 08:49:33;;;;;;;16.02;14.63;;;;;;;18.99;90.70;101463.81;4914585;28;20049;-77
2023/05/07 08:51:59;;;;;;;16.40;15.00;;;;;;;18.84;91.46;101460.44;4937428;28;20028;-76
2023/05/07 08:54:25;;;;;;;14.95;13.57;;;;;;;18.75;91.31;101461.97;4906555;29;20033;-76
2023/05/07 08:56:51;;;;;;;16.25;14.77;;;;;;;18.76;91.97;101455.59;4897386;28;20387;-74
2023/05/07 08:59:16;;;;;;;15.32;13.93;;;;;;;18.77;90.36;101461.84;4930650;28;20040;-74
2023/05/07 09:01:42;;;;;;;15.52;14.10;;;;;;;18.86;89.79;101458.50;4912863;28;20373;-73
2023/05/07 09:04:09;;;;;;;15.60;14.20;;;;;;;19.06;88.84;101465.94;4911141;28;20102;-73
2023/05/07 09:06:34;;;;;;;14.25;13.05;;;;;;;19.35;88.15;101463.66;4919306;28;20040;-74
2023/05/07 09:09:01;;;;;;;14.00;12.70;;;;;;;19.89;86.95;101456.72;4914960;28;20091;-76
2023/05/07 09:11:27;;;;;;;13.90;12.23;;;;;;;20.12;82.98;101460.28;4914303;28;20063;-74
2023/05/07 09:13:56;;;;;;;13.68;12.38;;;;;;;19.95;81.77;101461.66;4913087;28;20353;-75
2023/05/07 09:16:22;;;;;;;13.75;12.48;;;;;;;20.07;81.64;101455.25;4903998;28;20106;-76
2023/05/07 09:18:51;;;;;;;13.13;11.82;;;;;;;20.31;82.44;101449.66;4897318;28;20480;-73
2023/05/07 09:21:18;;;;;;;13.20;12.10;;;;;;;20.45;80.32;101459.34;5005549;28;20028;-73
2023/05/07 09:23:44;;;;;;;13.40;12.20;;;;;;;20.47;79.98;101462.78;4970011;28;20032;-75
2023/05/07 09:26:11;;;;;;;13.85;12.57;;;;;;;20.58;79.72;101464.63;4903555;28;20491;-74
2023/05/07 09:28:43;;;;;;;13.68;12.48;;;;;;;20.66;79.97;101464.88;4927558;28;20028;-77
2023/05/07 09:31:10;;;;;;;12.43;11.32;;;;;;;21.12;77.08;101466.38;4921294;28;20436;-76
2023/05/07 09:33:36;;;;;;;12.70;11.60;;;;;;;21.58;74.71;101468.72;4943532;28;20030;-77
2023/05/07 09:36:06;;;;;;;12.90;11.80;;;;;;;21.80;74.66;101474.94;4903356;28;20028;-74
2023/05/07 09:38:33;;;;;;;13.90;12.40;;;;;;;21.84;73.86;101474.53;4905125;28;20036;-75
2023/05/07 09:41:10;;;;;;;12.75;11.65;;;;;;;21.76;74.32;101471.63;4925096;28;20027;-73
2023/05/07 09:43:37;;;;;;;12.43;11.32;;;;;;;21.87;71.88;101468.84;4908209;28;20043;-74
2023/05/07 09:46:12;;;;;;;12.00;10.88;;;;;;;22.33;74.63;101467.47;4922828;28;20111;-75
2023/05/07 09:48:39;;;;;;;11.38;10.38;;;;;;;22.74;69.83;101470.97;4905060;28;20263;-78
2023/05/07 09:51:41;;;;;;;11.20;10.20;;;;;;;22.97;70.65;101473.41;4982177;28;20082;-76
2023/05/07 09:54:07;;;;;;;10.00;9.13;;;;;;;22.77;65.20;101470.66;4904988;28;20542;-76
2023/05/07 09:56:33;;;;;;;10.48;9.45;;;;;;;22.42;66.67;101475.75;4907111;28;20090;-77
2023/05/07 09:59:01;;;;;;;10.68;9.77;;;;;;;22.38;69.72;101478.75;4970133;28;20039;-75
2023/05/07 10:01:27;;;;;;;11.07;9.98;;;;;;;22.32;68.89;101479.31;4921149;28;20106;-75
2023/05/07 10:03:53;;;;;;;11.15;10.18;;;;;;;22.38;69.06;101464.34;4932172;28;20024;-77
2023/05/07 10:06:20;;;;;;;11.15;10.15;;;;;;;22.61;68.97;101471.22;4923374;28;20435;-75
2023/05/07 10:08:46;;;;;;;11.68;10.68;;;;;;;22.88;66.89;101475.94;4937379;28;20028;-77
2023/05/07 10:11:12;;;;;;;11.77;10.68;;;;;;;23.28;66.23;101472.25;4933193;28;20059;-79
2023/05/07 10:13:37;;;;;;;12.07;11.00;;;;;;;23.46;64.10;101471.50;4929171;28;20024;-79
2023/05/07 10:16:06;;;;;;;12.38;11.13;;;;;;;23.81;62.56;101468.97;4971400;28;20036;-74
2023/05/07 10:18:33;;;;;;;12.05;10.98;;;;;;;24.16;62.13;101470.13;4930217;28;20040;-74
2023/05/07 10:21:16;;;;;;;12.32;11.23;;;;;;;24.20;60.56;101466.06;4931822;28;20255;-81
2023/05/07 10:23:46;;;;;;;12.48;11.30;;;;;;;24.78;61.15;101467.56;4975555;28;20111;-76
2023/05/07 10:26:13;;;;;;;12.50;11.20;;;;;;;25.01;57.85;101467.97;4907485;28;20028;-74
2023/05/07 10:28:40;;;;;;;12.63;11.50;;;;;;;24.89;56.59;101463.78;4902300;28;20118;-76
2023/05/07 10:31:28;;;;;;;12.40;11.20;;;;;;;25.18;60.34;101467.13;4973850;28;20098;-76
2023/05/07 10:33:55;;;;;;;13.05;11.75;;;;;;;24.86;57.41;101470.38;4903360;28;20033;-74
2023/05/07 10:36:22;;;;;;;12.68;11.48;;;;;;;25.02;58.68;101475.97;4902183;28;20040;-76
2023/05/07 10:38:48;;;;;;;12.43;11.23;;;;;;;25.20;55.59;101478.69;4916166;28;20024;-73
2023/05/07 10:41:15;;;;;;;11.82;10.77;;;;;;;25.37;55.00;101468.78;4907039;28;20516;-76
2023/05/07 10:43:42;;;;;;;11.38;10.30;;;;;;;25.31;53.78;101473.00;4899676;28;20078;-76
2023/05/07 10:46:17;;;;;;;11.55;10.32;;;;;;;25.37;56.07;101473.38;4983562;28;20265;-73
2023/05/07 10:49:05;;;;;;;10.95;9.95;;;;;;;25.36;56.23;101480.69;4919416;28;20118;-77
2023/05/07 10:51:32;;;;;;;11.80;10.70;;;;;;;25.20;54.25;101488.75;4904901;28;20029;-76
2023/05/07 10:54:10;;;;;;;12.27;11.18;;;;;;;25.33;55.83;101490.06;4924723;28;20321;-75
2023/05/07 10:56:40;;;;;;;10.95;9.98;;;;;;;24.89;55.36;101486.41;4931488;28;20491;-75
2023/05/07 10:59:20;;;;;;;11.50;10.13;;;;;;;24.70;57.89;101483.81;4905608;28;20032;-75
2023/05/07 11:01:52;;;;;;;10.70;9.70;;;;;;;24.34;57.21;101490.06;4916229;28;20230;-75